createdAt,value
2023-05-09T00:02:16.435Z,101911.41
2023-05-09T00:12:20.516Z,101898.09
2023-05-09T00:22:22.508Z,101893.34
2023-05-09T00:32:46.290Z,101893.63
2023-05-09T00:42:48.211Z,101892.53
2023-05-09T00:52:51.529Z,101886.13
2023-05-09T01:02:55.646Z,101887.22
2023-05-09T01:13:18.875Z,101891.88
2023-05-09T01:24:15.869Z,101891.78
2023-05-09T01:34:18.728Z,101881.38
2023-05-09T01:44:22.918Z,101894.75
2023-05-09T01:54:41.958Z,101889.97
2023-05-09T02:04:45.447Z,101882.78
2023-05-09T02:14:51.299Z,101885.78
2023-05-09T02:25:07.973Z,101877.75
2023-05-09T02:35:12.269Z,101882.94
2023-05-09T02:45:22.673Z,101871.53
2023-05-09T02:55:24.706Z,101876.59
2023-05-09T03:05:27.699Z,101885.03
2023-05-09T03:15:29.661Z,101878.38
2023-05-09T03:25:31.698Z,101872.59
2023-05-09T03:35:33.548Z,101878.28
2023-05-09T03:45:36.631Z,101880.78
2023-05-09T03:55:38.498Z,101880.75
2023-05-09T04:05:40.998Z,101897.22
2023-05-09T04:15:43.073Z,101897.09
2023-05-09T04:25:54.543Z,101904.19
2023-05-09T04:35:58.010Z,101891.50
2023-05-09T04:46:00.041Z,101894.06
2023-05-09T04:56:08.195Z,101897.31
2023-05-09T05:06:14.329Z,101892.72
2023-05-09T05:16:38.207Z,101891.84
2023-05-09T05:27:00.484Z,101896.81
2023-05-09T05:37:05.752Z,101892.25
2023-05-09T05:47:07.782Z,101887.94
2023-05-09T05:57:09.724Z,101880.66
2023-05-09T06:07:14.179Z,101873.97
2023-05-09T06:17:16.766Z,101875.59
2023-05-09T06:27:18.846Z,101868.53
2023-05-09T06:37:22.781Z,101869.19
2023-05-09T06:47:24.822Z,101871.31
2023-05-09T06:57:26.813Z,101861.50
2023-05-09T07:07:28.777Z,101851.47
2023-05-09T07:17:55.800Z,101860.22
2023-05-09T07:27:58.474Z,101846.56
2023-05-09T07:38:00.374Z,101839.34
2023-05-09T07:48:04.623Z,101833.34
2023-05-09T07:58:07.784Z,101827.56
2023-05-09T08:08:09.755Z,101811.97
2023-05-09T08:18:16.481Z,101798.09
2023-05-09T08:28:40.040Z,101794.97
2023-05-09T08:38:42.012Z,101783.69
2023-05-09T08:48:45.535Z,101769.19
2023-05-09T08:58:49.205Z,101752.06
2023-05-09T09:08:51.723Z,101755.41
2023-05-09T09:19:19.204Z,101752.59
2023-05-09T09:29:23.435Z,101750.69
2023-05-09T09:39:25.480Z,101740.53
2023-05-09T09:49:27.587Z,101725.25
2023-05-09T09:59:31.616Z,101718.25
2023-05-09T10:09:35.311Z,101709.72
2023-05-09T10:19:46.305Z,101698.41
2023-05-09T10:30:01.913Z,101700.50
2023-05-09T10:40:25.991Z,101695.41
2023-05-09T10:50:28.720Z,101684.09
2023-05-09T11:00:55.157Z,101671.03
2023-05-09T11:11:27.052Z,101656.91
2023-05-09T11:21:36.236Z,101633.16
2023-05-09T11:32:08.656Z,101623.06
2023-05-09T11:42:11.301Z,101605.69
2023-05-09T11:52:13.287Z,101586.22
2023-05-09T12:02:15.247Z,101581.78
2023-05-09T12:12:21.938Z,101562.13
2023-05-09T12:22:53.049Z,101575.03
2023-05-09T12:32:56.447Z,101540.41
2023-05-09T12:43:03.761Z,101527.31
2023-05-09T12:53:08.448Z,101528.88
2023-05-09T13:03:26.201Z,101507.03
2023-05-09T13:13:29.454Z,101477.34
2023-05-09T13:23:31.408Z,101493.63
2023-05-09T13:33:42.240Z,101465.50
2023-05-09T13:43:58.311Z,101465.75
2023-05-09T13:54:09.904Z,101460.50
2023-05-09T14:04:18.804Z,101440.41
2023-05-09T14:14:42.544Z,101414.47
2023-05-09T14:24:59.625Z,101414.56
2023-05-09T14:35:01.798Z,101403.53
2023-05-09T14:45:04.874Z,101400.06
2023-05-09T14:55:09.333Z,101385.63
2023-05-09T15:05:19.566Z,101379.56
2023-05-09T15:15:25.991Z,101378.69
2023-05-09T15:25:28.243Z,101362.03
2023-05-09T15:35:45.827Z,101351.66
2023-05-09T15:45:48.502Z,101338.59
2023-05-09T15:55:50.732Z,101328.25
2023-05-09T16:05:53.239Z,101322.38
2023-05-09T16:15:55.266Z,101309.91
2023-05-09T16:25:58.305Z,101299.63
2023-05-09T16:36:00.270Z,101294.63
2023-05-09T16:46:03.557Z,101286.72
2023-05-09T16:56:06.427Z,101275.28
2023-05-09T17:06:21.808Z,101273.06
2023-05-09T17:16:32.956Z,101265.09
2023-05-09T17:26:35.331Z,101258.34
2023-05-09T17:36:52.530Z,101252.34
2023-05-09T17:46:55.632Z,101262.56
2023-05-09T17:57:01.652Z,101253.63
2023-05-09T18:07:05.362Z,101254.28
2023-05-09T18:17:33.116Z,101258.81
2023-05-09T18:27:35.227Z,101261.84
2023-05-09T18:37:37.686Z,101270.19
2023-05-09T18:47:39.740Z,101271.84
2023-05-09T18:57:42.919Z,101265.53
2023-05-09T19:07:49.275Z,101268.97
2023-05-09T19:17:56.175Z,101264.16
2023-05-09T19:28:12.582Z,101264.03
2023-05-09T19:38:21.141Z,101262.88
2023-05-09T19:48:25.092Z,101253.50
2023-05-09T19:58:29.706Z,101262.97
2023-05-09T20:18:55.832Z,101255.00
2023-05-09T20:29:02.110Z,101252.22
2023-05-09T20:39:04.768Z,101245.19
2023-05-09T20:49:08.504Z,101245.72
2023-05-09T20:59:14.594Z,101249.13
2023-05-09T21:09:16.524Z,101244.09
2023-05-09T21:19:18.493Z,101245.81
2023-05-09T21:29:21.495Z,101237.50
2023-05-09T21:39:23.321Z,101231.50
2023-05-09T21:49:32.319Z,101239.50
2023-05-09T21:59:40.122Z,101238.50
2023-05-09T22:09:44.076Z,101249.66
2023-05-09T22:19:47.009Z,101244.50
2023-05-09T22:29:55.645Z,101234.03
2023-05-09T22:40:01.582Z,101228.47
2023-05-09T22:50:04.980Z,101216.78
2023-05-09T23:00:13.656Z,101227.50
2023-05-09T23:10:27.124Z,101219.91
2023-05-09T23:20:29.160Z,101210.88
2023-05-09T23:30:33.065Z,101202.94
2023-05-09T23:40:34.953Z,101207.75
2023-05-09T23:50:36.920Z,101207.09
